Time;durP1;ratioP1;P1;durP2;ratioP2;P2;SDS_P1;SDS_P2;PMS_P1;PMS_P2;Temp;Humidity;BMP_temperature;BMP_pressure;BME280_temperature;BME280_humidity;BME280_pressure;Samples;Min_cycle;Max_cycle;Signal;HPM_P1;HPM_P2
2021/12/30 00:00:28;;;;;;;;;;;;;;;17.80;72.85;99827.00;6304189;22;19903;-96
2021/12/30 00:02:53;;;;;;;;;;;;;;;18.06;72.04;99828.69;6304876;22;19941;-96
2021/12/30 00:07:50;;;;;;;;;;;;;;;17.86;72.69;99825.53;6274491;22;19959;-96
2021/12/30 00:10:15;;;;;;;;;;;;;;;18.02;71.69;99830.84;6274222;22;19919;-96
2021/12/30 00:12:40;;;;;;;;;;;;;;;18.06;71.87;99823.38;6274171;22;19975;-96
2021/12/30 00:15:07;;;;;;;;;;;;;;;18.04;71.54;99828.84;6274121;22;19911;-96
2021/12/30 00:17:33;;;;;;;;;;;;;;;17.98;71.49;99826.88;6273585;23;19907;-96
2021/12/30 00:20:11;;;;;;;;;;;;;;;17.98;71.91;99824.22;6281317;22;19899;-96
2021/12/30 00:22:37;;;;;;;;;;;;;;;17.81;72.49;99822.50;6304849;22;19948;-96
2021/12/30 00:25:03;;;;;;;;;;;;;;;17.76;73.07;99830.97;6305153;22;19902;-96
2021/12/30 01:06:15;;;;;;;;;;;;;;;18.30;70.73;99840.28;6286544;22;19899;-96
2021/12/30 06:00:54;;;;;;;;;;;;;;;17.62;73.24;99973.16;6280169;22;19919;-96
2021/12/30 06:03:21;;;;;;;;;;;;;;;17.76;72.83;99982.34;6304927;22;19915;-96
2021/12/30 06:05:47;;;;;;;;;;;;;;;17.66;73.08;99973.69;6305923;22;19911;-96
2021/12/30 06:08:12;;;;;;;;;;;;;;;17.45;73.86;99976.75;6302554;22;19948;-96
2021/12/30 06:10:39;;;;;;;;;;;;;;;17.54;73.71;99982.94;6302306;22;20293;-96
2021/12/30 06:13:05;;;;;;;;;;;;;;;17.75;72.98;99983.34;6299269;22;19911;-96
2021/12/30 06:15:30;;;;;;;;;;;;;;;17.87;72.33;99975.94;6300041;22;19921;-96
2021/12/30 06:17:56;;;;;;;;;;;;;;;17.68;72.70;99978.84;6300851;22;19946;-96
2021/12/30 06:20:21;;;;;;;;;;;;;;;17.95;71.91;99980.41;6299299;22;19945;-96
2021/12/30 06:22:48;;;;;;;;;;;;;;;17.29;74.52;99987.28;6296937;22;20326;-96
2021/12/30 06:25:14;;;;;;;;;;;;;;;17.49;73.85;99982.56;6296450;22;19926;-96
2021/12/30 06:27:40;;;;;;;;;;;;;;;17.50;73.41;99990.38;6296276;22;19907;-96
2021/12/30 06:30:05;;;;;;;;;;;;;;;17.74;72.71;99984.31;6296451;22;19911;-96
2021/12/30 06:32:31;;;;;;;;;;;;;;;17.55;73.34;99995.19;6296821;22;19911;-96
2021/12/30 06:34:56;;;;;;;;;;;;;;;17.68;72.96;99990.28;6297847;22;19911;-96
2021/12/30 06:37:22;;;;;;;;;;;;;;;17.28;74.66;99991.75;6298421;22;20341;-96
2021/12/30 06:39:47;;;;;;;;;;;;;;;17.80;72.06;99996.94;6298622;22;19907;-96
2021/12/30 06:42:13;;;;;;;;;;;;;;;17.64;72.98;99986.28;6268643;22;19911;-96
2021/12/30 06:44:39;;;;;;;;;;;;;;;17.84;72.28;99994.84;6295726;22;19957;-96
2021/12/30 06:47:05;;;;;;;;;;;;;;;17.86;71.89;100013.28;6296149;22;19990;-96
2021/12/30 06:49:36;;;;;;;;;;;;;;;17.91;72.00;100000.31;6294524;22;19927;-96
2021/12/30 06:52:02;;;;;;;;;;;;;;;18.10;70.84;100002.69;6294571;22;19931;-96
2021/12/30 06:54:28;;;;;;;;;;;;;;;18.04;71.48;100014.81;6295798;22;19912;-96
2021/12/30 06:56:55;;;;;;;;;;;;;;;17.74;72.24;100012.69;6297437;22;19955;-96
2021/12/30 06:59:21;;;;;;;;;;;;;;;17.90;71.68;100006.66;6297932;22;19918;-96
2021/12/30 07:01:46;;;;;;;;;;;;;;;17.37;73.26;100006.72;6275674;22;19958;-96
2021/12/30 07:04:12;;;;;;;;;;;;;;;17.65;72.74;100017.13;6296621;22;19912;-96
2021/12/30 07:06:37;;;;;;;;;;;;;;;17.99;71.28;100021.59;6293618;22;19959;-96
2021/12/30 07:09:03;;;;;;;;;;;;;;;17.74;71.94;100034.78;6277157;22;19959;-96
2021/12/30 07:11:28;;;;;;;;;;;;;;;17.78;72.13;100024.66;6304987;22;19906;-96
2021/12/30 07:13:54;;;;;;;;;;;;;;;17.64;72.66;100029.59;6304340;22;19911;-96
2021/12/30 07:16:20;;;;;;;;;;;;;;;17.89;71.33;100020.91;6294310;22;19919;-96
2021/12/30 07:18:46;;;;;;;;;;;;;;;17.75;71.82;100033.78;6268186;22;19945;-96
2021/12/30 07:21:11;;;;;;;;;;;;;;;18.05;71.11;100031.59;6296779;22;19911;-96
2021/12/30 07:23:36;;;;;;;;;;;;;;;17.67;71.96;100028.41;6272067;22;19935;-96
2021/12/30 07:26:02;;;;;;;;;;;;;;;17.87;71.07;100021.09;6300184;22;19907;-96
2021/12/30 07:28:27;;;;;;;;;;;;;;;17.94;71.21;100029.22;6274568;22;19934;-96
2021/12/30 07:30:53;;;;;;;;;;;;;;;17.93;70.89;100030.22;6275302;22;19911;-96
2021/12/30 07:33:18;;;;;;;;;;;;;;;17.81;71.21;100033.16;6302091;22;19915;-96
2021/12/30 07:35:43;;;;;;;;;;;;;;;17.69;72.10;100039.72;6302070;22;19912;-96
2021/12/30 07:38:09;;;;;;;;;;;;;;;17.86;71.20;100040.66;6302199;22;19907;-96
2021/12/30 07:40:34;;;;;;;;;;;;;;;17.82;71.38;100042.75;6301892;22;19911;-96
2021/12/30 07:43:00;;;;;;;;;;;;;;;17.64;72.01;100044.69;6303508;22;19939;-96
2021/12/30 07:45:25;;;;;;;;;;;;;;;17.89;71.13;100052.78;6297704;22;19939;-96
2021/12/30 07:47:51;;;;;;;;;;;;;;;17.99;70.87;100058.78;6272503;22;19962;-96
2021/12/30 07:50:16;;;;;;;;;;;;;;;18.06;70.61;100043.03;6300192;22;19939;-96
2021/12/30 07:52:42;;;;;;;;;;;;;;;18.08;70.73;100047.19;6299845;22;19911;-96
2021/12/30 07:55:08;;;;;;;;;;;;;;;17.97;70.60;100050.16;6300351;22;19994;-96
2021/12/30 07:57:35;;;;;;;;;;;;;;;18.04;70.79;100048.50;6301139;22;19918;-96
2021/12/30 08:00:01;;;;;;;;;;;;;;;18.14;69.97;100053.69;6300661;22;19912;-96
2021/12/30 08:02:26;;;;;;;;;;;;;;;18.29;70.18;100061.88;6302383;22;19915;-96
2021/12/30 08:04:52;;;;;;;;;;;;;;;18.19;70.15;100062.03;6275592;22;19916;-96
2021/12/30 08:20:12;;;;;;;;;;;;;;;18.03;71.42;100092.03;6289625;22;19904;-96
2021/12/30 08:27:48;;;;;;;;;;;;;;;17.92;71.92;100081.69;6291773;22;19920;-91
2021/12/30 17:31:04;;;;;;;;;;;;;;;17.36;72.77;100275.75;6300995;22;19899;-95
2021/12/30 17:38:44;;;;;;;;;;;;;;;17.25;72.44;100273.31;6288150;22;19900;-96
2021/12/30 17:41:10;;;;;;;;;;;;;;;17.26;72.63;100261.72;6303873;22;19915;-96
2021/12/30 17:43:36;;;;;;;;;;;;;;;17.45;71.45;100264.22;6279826;22;19911;-96
2021/12/30 17:48:37;;;;;;;;;;;;;;;17.26;72.07;100253.78;6299545;22;19899;-96
2021/12/30 17:51:06;;;;;;;;;;;;;;;17.53;71.52;100254.66;6290590;22;19922;-96
2021/12/30 17:58:44;;;;;;;;;;;;;;;16.97;72.74;100264.56;6305124;22;19947;-96
2021/12/30 18:01:09;;;;;;;;;;;;;;;16.82;73.25;100250.97;6302247;22;19946;-96
2021/12/30 18:03:35;;;;;;;;;;;;;;;17.51;71.05;100275.22;6302736;22;19919;-96
2021/12/30 18:06:01;;;;;;;;;;;;;;;17.78;70.00;100280.41;6302910;22;19922;-96
2021/12/30 18:08:27;;;;;;;;;;;;;;;17.14;72.29;100292.09;6305611;22;19895;-96
2021/12/30 18:13:24;;;;;;;;;;;;;;;17.48;71.04;100286.16;6293046;22;19930;-96
2021/12/30 18:18:25;;;;;;;;;;;;;;;17.77;69.70;100289.38;6293135;22;19915;-96
2021/12/30 18:20:51;;;;;;;;;;;;;;;17.60;70.11;100287.59;6279661;22;19899;-96
2021/12/30 18:23:21;;;;;;;;;;;;;;;17.63;69.89;100288.13;6306724;22;19918;-96
2021/12/30 18:28:23;;;;;;;;;;;;;;;17.41;70.97;100281.44;6289319;22;19922;-96
2021/12/30 18:33:24;;;;;;;;;;;;;;;17.27;71.36;100284.63;6299649;22;19915;-96
2021/12/30 18:35:49;;;;;;;;;;;;;;;17.23;71.22;100288.56;6305976;22;19895;-96
2021/12/30 19:48:04;;;;;;;;;;;;;;;17.28;72.36;100310.19;6286752;22;19915;-96
2021/12/30 19:50:33;;;;;;;;;;;;;;;17.18;72.39;100304.06;6302576;22;19914;-96
2021/12/30 20:13:42;;;;;;;;;;;;;;;16.98;73.34;100309.53;6283971;22;19922;-96
2021/12/30 20:16:07;;;;;;;;;;;;;;;16.94;72.90;100313.47;6304292;22;19899;-95
2021/12/30 20:18:33;;;;;;;;;;;;;;;17.30;71.85;100313.50;6304551;22;19914;-94
2021/12/30 20:26:05;;;;;;;;;;;;;;;17.11;71.92;100313.63;6290891;22;19921;-95
2021/12/30 20:31:06;;;;;;;;;;;;;;;16.83;72.77;100316.28;6293646;22;19899;-96
2021/12/30 20:33:33;;;;;;;;;;;;;;;16.72;72.85;100319.09;6276688;22;19922;-96
2021/12/30 20:35:58;;;;;;;;;;;;;;;16.93;72.07;100319.72;6301334;22;19907;-96
2021/12/30 20:38:24;;;;;;;;;;;;;;;17.03;71.60;100317.84;6299014;22;19926;-94
2021/12/30 20:40:50;;;;;;;;;;;;;;;17.23;71.11;100328.34;6271150;22;19934;-96
2021/12/30 20:43:17;;;;;;;;;;;;;;;17.00;71.69;100334.09;6294965;22;19911;-95
2021/12/30 20:45:43;;;;;;;;;;;;;;;16.58;73.53;100333.66;6300004;22;19918;-96
2021/12/30 20:48:09;;;;;;;;;;;;;;;16.90;72.37;100333.28;6301397;22;19911;-96
2021/12/30 20:50:36;;;;;;;;;;;;;;;16.88;72.16;100323.81;6299674;22;19911;-96
2021/12/30 20:53:02;;;;;;;;;;;;;;;16.71;72.70;100325.41;6293940;22;19907;-96
2021/12/30 20:55:29;;;;;;;;;;;;;;;16.75;72.34;100342.69;6293801;22;19956;-95
2021/12/30 20:57:55;;;;;;;;;;;;;;;16.77;71.98;100333.59;6297194;22;19911;-95
2021/12/30 21:00:21;;;;;;;;;;;;;;;17.28;70.32;100328.75;6294670;22;19922;-96
2021/12/30 21:02:47;;;;;;;;;;;;;;;16.92;71.41;100328.66;6300020;22;19918;-96
2021/12/30 21:05:13;;;;;;;;;;;;;;;16.79;71.70;100333.44;6301048;22;19915;-96
2021/12/30 21:07:39;;;;;;;;;;;;;;;17.17;70.87;100315.69;6301538;22;19913;-96
2021/12/30 21:10:05;;;;;;;;;;;;;;;17.04;70.84;100331.94;6302389;22;19908;-96
2021/12/30 21:12:31;;;;;;;;;;;;;;;17.29;70.34;100330.41;6303691;22;19941;-96
2021/12/30 21:14:56;;;;;;;;;;;;;;;17.21;69.96;100328.50;6304361;22;19895;-96
2021/12/30 21:17:25;;;;;;;;;;;;;;;17.37;70.01;100325.19;6303656;22;19911;-96
2021/12/30 21:19:50;;;;;;;;;;;;;;;16.94;71.05;100334.69;6303165;22;19906;-96
2021/12/30 21:22:16;;;;;;;;;;;;;;;17.00;71.00;100334.09;6304231;22;19902;-96
2021/12/30 21:24:42;;;;;;;;;;;;;;;17.38;69.15;100337.47;6304163;22;19914;-96
2021/12/30 21:29:46;;;;;;;;;;;;;;;17.12;70.05;100347.97;6293018;22;19915;-96
2021/12/30 21:32:11;;;;;;;;;;;;;;;16.76;70.83;100344.34;6294833;22;19907;-96
2021/12/30 21:34:37;;;;;;;;;;;;;;;16.65;71.68;100340.88;6297755;22;19919;-96
2021/12/30 21:37:03;;;;;;;;;;;;;;;16.61;71.91;100344.81;6297392;22;19899;-96
2021/12/30 21:39:29;;;;;;;;;;;;;;;16.90;71.04;100338.56;6296311;22;19904;-96
2021/12/30 21:41:54;;;;;;;;;;;;;;;16.82;70.78;100331.38;6297816;22;19907;-96
2021/12/30 21:44:20;;;;;;;;;;;;;;;16.68;71.63;100331.81;6272979;22;19911;-96
2021/12/30 21:46:45;;;;;;;;;;;;;;;16.69;70.82;100335.31;6238751;22;1378677;-92
2021/12/30 21:49:11;;;;;;;;;;;;;;;16.59;71.75;100322.09;6302530;22;19947;-96
2021/12/30 21:51:36;;;;;;;;;;;;;;;16.50;72.28;100320.31;6304094;22;19898;-96
2021/12/30 21:54:02;;;;;;;;;;;;;;;16.60;71.57;100319.28;6304730;22;19895;-96
2021/12/30 21:56:27;;;;;;;;;;;;;;;16.49;72.20;100319.47;6278058;22;19911;-95
2021/12/30 21:58:52;;;;;;;;;;;;;;;16.63;71.62;100321.66;6305916;22;19911;-96
2021/12/30 22:01:18;;;;;;;;;;;;;;;16.77;71.35;100328.28;6278148;22;19949;-96
2021/12/30 22:06:20;;;;;;;;;;;;;;;16.74;70.91;100327.75;6276498;22;19907;-96
